createdAt,value
2018-07-26T00:02:28.582Z,22.9
2018-07-26T00:07:26.752Z,22.8
2018-07-26T00:12:27.257Z,22.8
2018-07-26T00:17:27.154Z,22.8
2018-07-26T00:22:27.195Z,22.7
2018-07-26T00:27:28.131Z,22.7
2018-07-26T00:32:27.211Z,22.6
2018-07-26T00:37:27.430Z,22.5
2018-07-26T00:42:27.572Z,22.5
2018-07-26T00:47:27.423Z,22.3
2018-07-26T00:52:27.093Z,22.1
2018-07-26T00:57:26.837Z,22.1
2018-07-26T01:02:27.686Z,22.1
2018-07-26T01:07:28.438Z,22.0
2018-07-26T01:12:27.134Z,21.9
2018-07-26T01:17:28.084Z,21.9
2018-07-26T01:22:27.315Z,21.8
2018-07-26T01:27:27.832Z,21.7
2018-07-26T01:32:27.128Z,21.7
2018-07-26T01:37:27.992Z,21.6
2018-07-26T01:42:27.663Z,21.5
2018-07-26T01:47:27.418Z,21.5
2018-07-26T01:52:26.882Z,21.4
2018-07-26T01:57:27.420Z,21.3
2018-07-26T02:02:28.485Z,21.3
2018-07-26T02:07:28.590Z,21.3
2018-07-26T02:12:27.861Z,21.2
2018-07-26T02:17:29.137Z,21.0
2018-07-26T02:22:27.005Z,21.0
2018-07-26T02:27:27.044Z,20.9
2018-07-26T02:32:27.233Z,20.9
2018-07-26T02:37:27.676Z,20.9
2018-07-26T02:42:27.195Z,20.8
2018-07-26T02:47:28.237Z,20.8
2018-07-26T02:52:27.678Z,20.8
2018-07-26T02:57:27.446Z,20.7
2018-07-26T03:02:27.459Z,20.7
2018-07-26T03:07:27.212Z,20.6
2018-07-26T03:12:26.890Z,20.5
2018-07-26T03:17:27.978Z,20.5
2018-07-26T03:22:28.443Z,20.4
2018-07-26T03:27:27.497Z,20.3
2018-07-26T03:32:28.872Z,20.3
2018-07-26T03:37:27.915Z,20.2
2018-07-26T03:42:28.121Z,20.2
2018-07-26T03:47:27.560Z,20.2
2018-07-26T03:52:29.607Z,20.2
2018-07-26T03:57:27.640Z,20.1
2018-07-26T04:02:28.497Z,20.2
2018-07-26T04:07:28.220Z,20.2
2018-07-26T04:12:28.496Z,20.2
2018-07-26T04:17:28.103Z,20.2
2018-07-26T04:22:27.937Z,20.2
2018-07-26T04:27:27.829Z,20.2
2018-07-26T04:32:27.944Z,20.3
2018-07-26T04:37:27.558Z,20.4
2018-07-26T04:42:28.288Z,20.5
2018-07-26T04:47:28.150Z,21.0
2018-07-26T04:52:28.199Z,21.2
2018-07-26T04:57:27.749Z,21.2
2018-07-26T05:02:28.254Z,21.4
2018-07-26T05:07:27.910Z,21.5
2018-07-26T05:12:28.190Z,21.7
2018-07-26T05:17:28.428Z,21.9
2018-07-26T05:22:27.918Z,22.2
2018-07-26T05:27:27.248Z,22.2
2018-07-26T05:32:27.672Z,22.7
2018-07-26T05:37:28.768Z,22.7
2018-07-26T05:42:27.115Z,22.9
2018-07-26T05:47:29.236Z,23.2
2018-07-26T05:52:28.475Z,23.4
2018-07-26T05:57:28.278Z,23.8
2018-07-26T06:02:27.824Z,24.0
2018-07-26T06:07:28.361Z,24.2
2018-07-26T06:12:27.540Z,24.2
2018-07-26T06:17:28.135Z,24.5
2018-07-26T06:22:28.656Z,24.7
2018-07-26T06:27:27.626Z,24.9
2018-07-26T06:32:28.011Z,25.1
2018-07-26T06:37:27.737Z,25.7
2018-07-26T06:42:29.427Z,25.6
2018-07-26T06:47:28.163Z,25.9
2018-07-26T06:52:28.052Z,26.2
2018-07-26T06:57:27.869Z,26.5
2018-07-26T07:02:28.516Z,26.7
2018-07-26T07:07:28.389Z,27.0
2018-07-26T07:12:27.583Z,27.2
2018-07-26T07:17:27.998Z,27.5
2018-07-26T07:22:28.005Z,27.8
2018-07-26T07:27:28.208Z,28.0
2018-07-26T07:32:28.039Z,28.3
2018-07-26T07:37:28.329Z,29.0
2018-07-26T07:42:28.127Z,28.9
2018-07-26T07:47:27.719Z,29.3
2018-07-26T07:52:27.989Z,29.6
2018-07-26T07:57:27.951Z,30.2
2018-07-26T08:02:28.418Z,30.2
2018-07-26T08:07:27.975Z,30.6
2018-07-26T08:12:28.039Z,31.0
2018-07-26T08:17:28.144Z,31.7
2018-07-26T08:22:27.869Z,31.6
2018-07-26T08:27:27.700Z,32.0
2018-07-26T08:32:27.926Z,32.4
2018-07-26T08:37:28.080Z,32.6
2018-07-26T08:42:28.210Z,33.2
2018-07-26T08:47:28.750Z,33.1
2018-07-26T08:52:27.543Z,33.3
2018-07-26T08:57:28.150Z,33.5
2018-07-26T09:02:28.252Z,33.6
2018-07-26T09:07:28.515Z,33.7
2018-07-26T09:12:27.664Z,34.2
2018-07-26T09:17:27.868Z,34.2
2018-07-26T09:22:27.743Z,34.4
2018-07-26T09:27:29.254Z,34.6
2018-07-26T09:32:28.409Z,34.9
2018-07-26T09:37:28.056Z,35.0
2018-07-26T09:42:28.305Z,35.1
2018-07-26T09:47:28.039Z,35.0
2018-07-26T09:52:27.437Z,35.1
2018-07-26T09:57:27.592Z,35.3
2018-07-26T10:02:28.324Z,35.5
2018-07-26T10:07:27.758Z,35.7
2018-07-26T10:12:28.324Z,35.8
2018-07-26T10:17:27.831Z,35.9
2018-07-26T10:22:27.620Z,36.2
2018-07-26T10:27:28.053Z,36.2
2018-07-26T10:32:28.074Z,36.4
2018-07-26T10:37:27.703Z,36.4
2018-07-26T10:42:27.992Z,36.5
2018-07-26T10:47:28.352Z,36.6
2018-07-26T10:52:28.639Z,36.6
2018-07-26T10:57:28.339Z,36.7
2018-07-26T11:02:28.686Z,36.5
2018-07-26T11:07:28.621Z,36.5
2018-07-26T11:12:27.791Z,36.6
2018-07-26T11:17:28.036Z,36.8
2018-07-26T11:22:27.815Z,37.1
2018-07-26T11:27:27.968Z,37.2
2018-07-26T11:32:27.953Z,37.4
2018-07-26T11:37:28.141Z,37.4
2018-07-26T11:42:28.055Z,37.5
2018-07-26T11:47:28.203Z,37.7
2018-07-26T11:52:27.921Z,37.7
2018-07-26T11:57:27.383Z,38.3
2018-07-26T12:02:27.582Z,38.2
2018-07-26T12:07:27.643Z,38.1
2018-07-26T12:12:28.496Z,37.5
2018-07-26T12:17:28.013Z,37.3
2018-07-26T12:22:27.484Z,36.8
2018-07-26T12:27:27.994Z,37.2
2018-07-26T12:32:28.543Z,37.8
2018-07-26T12:37:28.808Z,37.8
2018-07-26T12:42:28.139Z,37.3
2018-07-26T12:47:28.515Z,37.4
2018-07-26T12:52:27.464Z,38.2
2018-07-26T12:57:28.571Z,38.1
2018-07-26T13:02:27.882Z,38.5
2018-07-26T13:07:28.579Z,38.8
2018-07-26T13:12:28.482Z,39.7
2018-07-26T13:17:27.906Z,39.7
2018-07-26T13:22:28.253Z,40.1
2018-07-26T13:27:29.109Z,39.9
2018-07-26T13:32:28.696Z,40.7
2018-07-26T13:37:28.261Z,40.6
2018-07-26T13:42:27.977Z,40.5
2018-07-26T13:47:28.301Z,40.7
2018-07-26T13:52:28.091Z,41.1
2018-07-26T13:57:28.469Z,41.6
2018-07-26T14:02:29.178Z,41.9
2018-07-26T14:07:27.950Z,42.6
2018-07-26T14:12:28.631Z,42.5
2018-07-26T14:17:28.194Z,42.6
2018-07-26T14:22:28.111Z,42.6
2018-07-26T14:27:28.561Z,42.6
2018-07-26T14:32:28.295Z,42.8
2018-07-26T14:37:28.014Z,43.4
2018-07-26T14:42:28.304Z,43.4
2018-07-26T14:47:28.927Z,44.0
2018-07-26T14:52:27.358Z,45.3
2018-07-26T14:57:28.269Z,45.0
2018-07-26T15:02:28.069Z,49.3
2018-07-26T15:07:28.359Z,49.2
2018-07-26T15:12:28.107Z,46.5
2018-07-26T15:17:27.513Z,47.6
2018-07-26T15:22:27.577Z,52.0
2018-07-26T15:27:28.098Z,52.2
2018-07-26T15:32:28.373Z,50.3
2018-07-26T15:37:27.547Z,54.0
2018-07-26T15:42:27.904Z,57.0
2018-07-26T15:47:27.622Z,57.0
2018-07-26T15:52:27.017Z,57.5
2018-07-26T15:57:27.709Z,58.3
2018-07-26T16:02:28.615Z,59.0
2018-07-26T16:07:27.906Z,59.7
2018-07-26T16:12:28.403Z,57.9
2018-07-26T16:17:28.001Z,52.1
2018-07-26T16:22:29.099Z,51.9
2018-07-26T16:27:27.748Z,55.8
2018-07-26T16:32:28.614Z,58.0
2018-07-26T16:37:28.038Z,59.7
2018-07-26T16:42:27.557Z,59.7
2018-07-26T16:47:27.560Z,60.1
2018-07-26T16:52:28.478Z,59.9
2018-07-26T16:57:27.413Z,59.9
2018-07-26T17:02:29.977Z,56.6
2018-07-26T17:07:27.524Z,58.2
2018-07-26T17:12:27.941Z,58.7
2018-07-26T17:17:28.055Z,58.7
2018-07-26T17:22:27.593Z,58.6
2018-07-26T17:27:27.469Z,58.4
2018-07-26T17:32:27.860Z,58.4
2018-07-26T17:37:26.669Z,57.9
2018-07-26T17:42:27.998Z,57.7
2018-07-26T17:47:28.207Z,57.5
2018-07-26T17:52:27.516Z,56.0
2018-07-26T17:57:29.515Z,54.9
2018-07-26T18:02:28.333Z,52.8
2018-07-26T18:07:28.089Z,52.8
2018-07-26T18:12:27.867Z,48.8
2018-07-26T18:17:27.635Z,44.1
2018-07-26T18:22:27.428Z,41.2
2018-07-26T18:27:28.982Z,39.1
2018-07-26T18:32:27.738Z,37.5
2018-07-26T18:37:27.956Z,36.3
2018-07-26T18:42:28.302Z,35.3
2018-07-26T18:47:27.865Z,34.6
2018-07-26T18:52:27.881Z,33.4
2018-07-26T18:57:28.178Z,32.9
2018-07-26T19:02:28.465Z,32.8
2018-07-26T19:07:28.424Z,32.3
2018-07-26T19:12:27.938Z,31.9
2018-07-26T19:17:28.064Z,31.4
2018-07-26T19:22:27.420Z,31.0
2018-07-26T19:27:27.414Z,30.6
2018-07-26T19:32:27.339Z,30.3
2018-07-26T19:37:28.485Z,29.9
2018-07-26T19:42:27.248Z,29.6
2018-07-26T19:47:26.890Z,29.3
2018-07-26T19:52:28.642Z,28.9
2018-07-26T19:57:28.419Z,28.5
2018-07-26T20:02:27.498Z,28.1
2018-07-26T20:07:27.339Z,27.4
2018-07-26T20:12:27.100Z,27.3
2018-07-26T20:17:27.855Z,27.0
2018-07-26T20:22:27.224Z,26.8
2018-07-26T20:27:27.649Z,26.6
2018-07-26T20:32:28.593Z,26.3
2018-07-26T20:37:27.146Z,26.1
2018-07-26T20:42:27.263Z,25.9
2018-07-26T20:47:27.899Z,25.7
2018-07-26T20:52:27.700Z,25.6
2018-07-26T20:57:27.997Z,25.5
2018-07-26T21:02:26.590Z,25.2
2018-07-26T21:07:27.558Z,24.9
2018-07-26T21:12:27.246Z,24.8
2018-07-26T21:17:27.032Z,24.7
2018-07-26T21:22:27.147Z,24.7
2018-07-26T21:27:28.167Z,24.7
2018-07-26T21:32:27.038Z,24.7
2018-07-26T21:37:27.695Z,24.6
2018-07-26T21:42:27.120Z,24.6
2018-07-26T21:47:28.344Z,24.4
2018-07-26T21:52:27.473Z,24.2
2018-07-26T21:57:26.983Z,24.2
2018-07-26T22:02:27.371Z,24.1
2018-07-26T22:07:26.740Z,24.0
2018-07-26T22:12:27.730Z,23.9
2018-07-26T22:22:45.865Z,23.5
2018-07-26T22:27:43.874Z,23.4
2018-07-26T22:32:44.688Z,23.4
2018-07-26T22:37:44.322Z,23.3
2018-07-26T22:42:43.951Z,23.3
2018-07-26T22:47:45.071Z,23.3
2018-07-26T22:52:43.855Z,23.1
2018-07-26T22:57:44.557Z,23.0
2018-07-26T23:02:45.544Z,22.9
2018-07-26T23:07:45.546Z,22.6
2018-07-26T23:12:27.084Z,22.6
2018-07-26T23:17:27.869Z,22.5
2018-07-26T23:22:26.600Z,22.5
2018-07-26T23:27:27.555Z,22.4
2018-07-26T23:32:27.294Z,22.4
2018-07-26T23:37:27.625Z,22.2
2018-07-26T23:42:27.439Z,22.1
2018-07-26T23:47:27.912Z,22.0
2018-07-26T23:52:27.755Z,21.9
2018-07-26T23:57:27.315Z,21.7
